sensor_id;sensor_type;location;lat;lon;timestamp;temperature;humidity
20479;DHT22;10398;52.490;13.434;2022-07-29T00:01:50;20.40;92.00
20479;DHT22;10398;52.490;13.434;2022-07-29T00:04:17;20.40;92.20
20479;DHT22;10398;52.490;13.434;2022-07-29T00:06:43;20.40;92.40
20479;DHT22;10398;52.490;13.434;2022-07-29T00:09:09;20.30;92.50
20479;DHT22;10398;52.490;13.434;2022-07-29T00:11:35;20.30;92.50
20479;DHT22;10398;52.490;13.434;2022-07-29T00:14:01;20.30;92.80
20479;DHT22;10398;52.490;13.434;2022-07-29T00:16:27;20.30;92.90
20479;DHT22;10398;52.490;13.434;2022-07-29T00:18:52;20.20;93.00
20479;DHT22;10398;52.490;13.434;2022-07-29T00:21:18;20.20;93.10
20479;DHT22;10398;52.490;13.434;2022-07-29T00:23:43;20.10;93.30
20479;DHT22;10398;52.490;13.434;2022-07-29T00:26:09;20.10;93.30
20479;DHT22;10398;52.490;13.434;2022-07-29T00:28:35;20.20;93.30
20479;DHT22;10398;52.490;13.434;2022-07-29T00:31:00;20.10;93.40
20479;DHT22;10398;52.490;13.434;2022-07-29T00:33:26;20.10;93.70
20479;DHT22;10398;52.490;13.434;2022-07-29T00:35:51;20.10;93.50
20479;DHT22;10398;52.490;13.434;2022-07-29T00:38:18;20.10;93.70
20479;DHT22;10398;52.490;13.434;2022-07-29T00:40:45;20.10;93.90
20479;DHT22;10398;52.490;13.434;2022-07-29T00:43:12;20.00;94.00
20479;DHT22;10398;52.490;13.434;2022-07-29T00:45:39;20.00;94.10
20479;DHT22;10398;52.490;13.434;2022-07-29T00:48:06;19.90;94.30
20479;DHT22;10398;52.490;13.434;2022-07-29T00:50:34;19.90;94.40
20479;DHT22;10398;52.490;13.434;2022-07-29T00:53:00;19.80;94.60
20479;DHT22;10398;52.490;13.434;2022-07-29T00:55:27;19.80;94.80
20479;DHT22;10398;52.490;13.434;2022-07-29T00:57:55;19.90;95.10
20479;DHT22;10398;52.490;13.434;2022-07-29T01:00:24;19.90;95.40
20479;DHT22;10398;52.490;13.434;2022-07-29T01:02:50;19.90;94.90
20479;DHT22;10398;52.490;13.434;2022-07-29T01:05:21;20.00;95.00
20479;DHT22;10398;52.490;13.434;2022-07-29T01:07:51;19.90;95.00
20479;DHT22;10398;52.490;13.434;2022-07-29T01:10:18;19.80;95.20
20479;DHT22;10398;52.490;13.434;2022-07-29T01:12:49;19.80;95.60
20479;DHT22;10398;52.490;13.434;2022-07-29T01:15:15;19.80;95.50
20479;DHT22;10398;52.490;13.434;2022-07-29T01:17:46;19.80;95.50
20479;DHT22;10398;52.490;13.434;2022-07-29T01:23:40;19.70;95.70
20479;DHT22;10398;52.490;13.434;2022-07-29T01:26:28;19.70;95.90
20479;DHT22;10398;52.490;13.434;2022-07-29T01:29:08;19.70;95.90
20479;DHT22;10398;52.490;13.434;2022-07-29T01:31:51;19.70;95.90
20479;DHT22;10398;52.490;13.434;2022-07-29T01:34:35;19.80;96.00
20479;DHT22;10398;52.490;13.434;2022-07-29T01:37:19;19.80;95.90
20479;DHT22;10398;52.490;13.434;2022-07-29T01:39:47;19.70;96.10
20479;DHT22;10398;52.490;13.434;2022-07-29T01:45:10;19.70;96.30
20479;DHT22;10398;52.490;13.434;2022-07-29T01:47:43;19.60;96.50
20479;DHT22;10398;52.490;13.434;2022-07-29T01:50:17;19.60;96.50
20479;DHT22;10398;52.490;13.434;2022-07-29T01:53:05;19.70;96.40
20479;DHT22;10398;52.490;13.434;2022-07-29T01:55:35;19.60;96.60
20479;DHT22;10398;52.490;13.434;2022-07-29T01:58:03;19.60;96.80
20479;DHT22;10398;52.490;13.434;2022-07-29T02:00:31;19.60;96.80
20479;DHT22;10398;52.490;13.434;2022-07-29T02:02:59;19.50;97.00
20479;DHT22;10398;52.490;13.434;2022-07-29T02:05:27;19.50;97.50
20479;DHT22;10398;52.490;13.434;2022-07-29T02:07:55;19.40;97.30
20479;DHT22;10398;52.490;13.434;2022-07-29T02:10:27;19.30;97.50
20479;DHT22;10398;52.490;13.434;2022-07-29T02:12:55;19.30;97.50
20479;DHT22;10398;52.490;13.434;2022-07-29T02:15:25;19.30;97.50
20479;DHT22;10398;52.490;13.434;2022-07-29T02:18:00;19.30;97.50
20479;DHT22;10398;52.490;13.434;2022-07-29T02:20:28;19.30;97.90
20479;DHT22;10398;52.490;13.434;2022-07-29T02:22:55;19.20;97.80
20479;DHT22;10398;52.490;13.434;2022-07-29T02:25:23;19.20;98.00
20479;DHT22;10398;52.490;13.434;2022-07-29T02:27:50;19.20;97.90
20479;DHT22;10398;52.490;13.434;2022-07-29T02:30:17;19.20;97.80
20479;DHT22;10398;52.490;13.434;2022-07-29T02:32:45;19.20;98.00
20479;DHT22;10398;52.490;13.434;2022-07-29T02:35:14;19.10;98.10
20479;DHT22;10398;52.490;13.434;2022-07-29T02:37:41;19.20;98.20
20479;DHT22;10398;52.490;13.434;2022-07-29T02:40:11;19.10;98.30
20479;DHT22;10398;52.490;13.434;2022-07-29T02:42:38;19.10;98.40
20479;DHT22;10398;52.490;13.434;2022-07-29T02:45:06;19.10;98.60
20479;DHT22;10398;52.490;13.434;2022-07-29T02:47:43;19.00;98.70
20479;DHT22;10398;52.490;13.434;2022-07-29T02:50:16;19.00;98.70
20479;DHT22;10398;52.490;13.434;2022-07-29T02:53:07;19.00;98.70
20479;DHT22;10398;52.490;13.434;2022-07-29T02:55:56;19.00;98.80
20479;DHT22;10398;52.490;13.434;2022-07-29T02:58:28;19.00;98.80
20479;DHT22;10398;52.490;13.434;2022-07-29T03:01:03;19.00;98.80
20479;DHT22;10398;52.490;13.434;2022-07-29T03:03:32;19.00;98.90
20479;DHT22;10398;52.490;13.434;2022-07-29T03:06:01;19.00;99.00
20479;DHT22;10398;52.490;13.434;2022-07-29T03:08:27;19.00;98.90
20479;DHT22;10398;52.490;13.434;2022-07-29T03:10:54;19.00;99.00
20479;DHT22;10398;52.490;13.434;2022-07-29T03:13:20;19.00;99.20
20479;DHT22;10398;52.490;13.434;2022-07-29T03:15:47;19.00;99.20
20479;DHT22;10398;52.490;13.434;2022-07-29T03:18:13;18.90;99.10
20479;DHT22;10398;52.490;13.434;2022-07-29T03:20:39;18.90;99.30
20479;DHT22;10398;52.490;13.434;2022-07-29T03:23:06;18.90;99.60
20479;DHT22;10398;52.490;13.434;2022-07-29T03:25:33;18.80;99.60
20479;DHT22;10398;52.490;13.434;2022-07-29T03:27:59;18.80;99.50
20479;DHT22;10398;52.490;13.434;2022-07-29T03:30:24;18.80;99.70
20479;DHT22;10398;52.490;13.434;2022-07-29T03:32:52;18.90;99.60
20479;DHT22;10398;52.490;13.434;2022-07-29T03:35:19;18.90;99.60
20479;DHT22;10398;52.490;13.434;2022-07-29T03:37:45;18.90;99.60
20479;DHT22;10398;52.490;13.434;2022-07-29T03:40:14;19.00;99.50
20479;DHT22;10398;52.490;13.434;2022-07-29T03:42:42;19.00;99.70
20479;DHT22;10398;52.490;13.434;2022-07-29T03:45:12;19.00;99.60
20479;DHT22;10398;52.490;13.434;2022-07-29T03:47:42;19.00;99.50
20479;DHT22;10398;52.490;13.434;2022-07-29T03:50:11;19.00;99.50
20479;DHT22;10398;52.490;13.434;2022-07-29T03:52:38;19.00;99.40
20479;DHT22;10398;52.490;13.434;2022-07-29T03:55:05;19.00;99.60
20479;DHT22;10398;52.490;13.434;2022-07-29T03:57:31;18.90;99.60
20479;DHT22;10398;52.490;13.434;2022-07-29T03:59:58;18.90;99.70
20479;DHT22;10398;52.490;13.434;2022-07-29T04:02:24;18.90;99.90
20479;DHT22;10398;52.490;13.434;2022-07-29T04:04:51;18.90;99.90
20479;DHT22;10398;52.490;13.434;2022-07-29T04:07:20;18.80;99.90
20479;DHT22;10398;52.490;13.434;2022-07-29T04:09:46;18.70;99.90
20479;DHT22;10398;52.490;13.434;2022-07-29T04:12:11;18.70;99.90
20479;DHT22;10398;52.490;13.434;2022-07-29T04:14:37;18.70;99.90
20479;DHT22;10398;52.490;13.434;2022-07-29T04:17:03;18.60;99.90
20479;DHT22;10398;52.490;13.434;2022-07-29T04:19:30;18.60;99.90
20479;DHT22;10398;52.490;13.434;2022-07-29T04:21:56;18.60;99.90
20479;DHT22;10398;52.490;13.434;2022-07-29T04:24:22;18.60;99.90
20479;DHT22;10398;52.490;13.434;2022-07-29T04:26:48;18.60;99.90
20479;DHT22;10398;52.490;13.434;2022-07-29T04:29:14;18.60;99.90
20479;DHT22;10398;52.490;13.434;2022-07-29T04:31:41;18.60;99.90
20479;DHT22;10398;52.490;13.434;2022-07-29T04:34:06;18.60;99.90
20479;DHT22;10398;52.490;13.434;2022-07-29T04:36:32;18.60;99.90
20479;DHT22;10398;52.490;13.434;2022-07-29T04:38:58;18.60;99.90
20479;DHT22;10398;52.490;13.434;2022-07-29T04:41:23;18.60;99.90
20479;DHT22;10398;52.490;13.434;2022-07-29T04:43:49;18.60;99.90
20479;DHT22;10398;52.490;13.434;2022-07-29T04:46:15;18.60;99.90
20479;DHT22;10398;52.490;13.434;2022-07-29T04:48:41;18.50;99.90
20479;DHT22;10398;52.490;13.434;2022-07-29T04:51:06;18.60;99.90
20479;DHT22;10398;52.490;13.434;2022-07-29T04:53:32;18.60;99.90
20479;DHT22;10398;52.490;13.434;2022-07-29T04:55:58;18.70;99.90
20479;DHT22;10398;52.490;13.434;2022-07-29T04:58:23;18.70;99.90
20479;DHT22;10398;52.490;13.434;2022-07-29T05:00:50;18.70;99.90
20479;DHT22;10398;52.490;13.434;2022-07-29T05:03:16;18.70;99.90
20479;DHT22;10398;52.490;13.434;2022-07-29T05:05:41;18.70;99.90
20479;DHT22;10398;52.490;13.434;2022-07-29T05:08:07;18.70;99.90
20479;DHT22;10398;52.490;13.434;2022-07-29T05:10:33;18.70;99.90
20479;DHT22;10398;52.490;13.434;2022-07-29T05:13:04;18.70;99.90
20479;DHT22;10398;52.490;13.434;2022-07-29T05:15:31;18.70;99.90
20479;DHT22;10398;52.490;13.434;2022-07-29T05:17:56;18.70;99.90
20479;DHT22;10398;52.490;13.434;2022-07-29T05:20:22;18.70;99.90
20479;DHT22;10398;52.490;13.434;2022-07-29T05:22:52;18.70;99.90
20479;DHT22;10398;52.490;13.434;2022-07-29T05:25:17;18.70;99.90
20479;DHT22;10398;52.490;13.434;2022-07-29T05:27:43;18.70;99.90
20479;DHT22;10398;52.490;13.434;2022-07-29T05:30:09;18.80;99.90
20479;DHT22;10398;52.490;13.434;2022-07-29T05:32:35;18.80;99.90
20479;DHT22;10398;52.490;13.434;2022-07-29T05:35:00;18.80;99.90
20479;DHT22;10398;52.490;13.434;2022-07-29T05:37:26;18.90;99.90
20479;DHT22;10398;52.490;13.434;2022-07-29T05:39:51;18.90;99.90
20479;DHT22;10398;52.490;13.434;2022-07-29T05:42:17;18.90;99.90
20479;DHT22;10398;52.490;13.434;2022-07-29T05:44:43;18.90;99.90
20479;DHT22;10398;52.490;13.434;2022-07-29T05:47:08;18.80;99.90
20479;DHT22;10398;52.490;13.434;2022-07-29T05:49:34;18.80;99.90
20479;DHT22;10398;52.490;13.434;2022-07-29T05:52:00;18.80;99.90
20479;DHT22;10398;52.490;13.434;2022-07-29T05:54:25;18.80;99.90
20479;DHT22;10398;52.490;13.434;2022-07-29T05:56:51;18.70;99.90
20479;DHT22;10398;52.490;13.434;2022-07-29T05:59:16;18.80;99.90
20479;DHT22;10398;52.490;13.434;2022-07-29T06:01:42;18.70;99.90
20479;DHT22;10398;52.490;13.434;2022-07-29T06:04:08;18.80;99.90
20479;DHT22;10398;52.490;13.434;2022-07-29T06:06:34;18.80;99.90
20479;DHT22;10398;52.490;13.434;2022-07-29T06:09:00;18.80;99.90
20479;DHT22;10398;52.490;13.434;2022-07-29T06:11:26;18.90;99.90
20479;DHT22;10398;52.490;13.434;2022-07-29T06:13:52;18.90;99.90
20479;DHT22;10398;52.490;13.434;2022-07-29T06:16:18;19.00;99.90
20479;DHT22;10398;52.490;13.434;2022-07-29T06:18:44;19.00;99.90
20479;DHT22;10398;52.490;13.434;2022-07-29T06:21:10;19.10;99.90
20479;DHT22;10398;52.490;13.434;2022-07-29T06:23:39;19.20;99.90
20479;DHT22;10398;52.490;13.434;2022-07-29T06:26:05;19.30;99.90
20479;DHT22;10398;52.490;13.434;2022-07-29T06:28:32;19.40;99.90
20479;DHT22;10398;52.490;13.434;2022-07-29T06:30:58;19.50;99.90
20479;DHT22;10398;52.490;13.434;2022-07-29T06:33:23;19.50;99.90
20479;DHT22;10398;52.490;13.434;2022-07-29T06:35:50;19.50;99.90
20479;DHT22;10398;52.490;13.434;2022-07-29T06:38:15;19.50;99.90
20479;DHT22;10398;52.490;13.434;2022-07-29T06:40:42;19.50;99.90
20479;DHT22;10398;52.490;13.434;2022-07-29T06:43:32;19.50;99.90
20479;DHT22;10398;52.490;13.434;2022-07-29T06:46:00;19.60;99.90
20479;DHT22;10398;52.490;13.434;2022-07-29T06:48:27;19.60;99.90
20479;DHT22;10398;52.490;13.434;2022-07-29T06:50:52;19.70;99.90
20479;DHT22;10398;52.490;13.434;2022-07-29T06:53:18;19.70;99.90
20479;DHT22;10398;52.490;13.434;2022-07-29T06:55:44;19.80;99.90
20479;DHT22;10398;52.490;13.434;2022-07-29T06:58:10;19.80;99.90
20479;DHT22;10398;52.490;13.434;2022-07-29T07:00:36;19.90;99.90
20479;DHT22;10398;52.490;13.434;2022-07-29T07:03:02;19.90;99.90
20479;DHT22;10398;52.490;13.434;2022-07-29T07:05:27;19.90;99.90
20479;DHT22;10398;52.490;13.434;2022-07-29T07:07:53;19.90;99.90
20479;DHT22;10398;52.490;13.434;2022-07-29T07:10:19;20.00;99.90
20479;DHT22;10398;52.490;13.434;2022-07-29T07:12:44;20.00;99.90
20479;DHT22;10398;52.490;13.434;2022-07-29T07:15:10;20.00;99.90
20479;DHT22;10398;52.490;13.434;2022-07-29T07:17:36;20.10;99.90
20479;DHT22;10398;52.490;13.434;2022-07-29T07:20:04;20.20;99.90
20479;DHT22;10398;52.490;13.434;2022-07-29T07:22:30;20.30;99.90
20479;DHT22;10398;52.490;13.434;2022-07-29T07:24:55;20.40;99.90
20479;DHT22;10398;52.490;13.434;2022-07-29T07:27:21;20.50;99.90
20479;DHT22;10398;52.490;13.434;2022-07-29T07:29:47;20.50;99.90
20479;DHT22;10398;52.490;13.434;2022-07-29T07:32:12;20.60;99.90
20479;DHT22;10398;52.490;13.434;2022-07-29T07:34:38;20.70;99.90
20479;DHT22;10398;52.490;13.434;2022-07-29T07:37:04;20.80;99.90
20479;DHT22;10398;52.490;13.434;2022-07-29T07:39:30;20.90;99.90
20479;DHT22;10398;52.490;13.434;2022-07-29T07:41:56;21.00;99.90
20479;DHT22;10398;52.490;13.434;2022-07-29T07:44:21;21.10;99.40
20479;DHT22;10398;52.490;13.434;2022-07-29T07:46:47;21.20;99.30
20479;DHT22;10398;52.490;13.434;2022-07-29T07:49:13;21.20;99.10
20479;DHT22;10398;52.490;13.434;2022-07-29T07:51:38;21.30;99.20
20479;DHT22;10398;52.490;13.434;2022-07-29T07:54:04;21.30;99.10
20479;DHT22;10398;52.490;13.434;2022-07-29T07:56:30;21.40;99.30
20479;DHT22;10398;52.490;13.434;2022-07-29T07:58:55;21.50;99.60
20479;DHT22;10398;52.490;13.434;2022-07-29T08:01:21;21.60;99.00
20479;DHT22;10398;52.490;13.434;2022-07-29T08:03:51;21.60;99.80
20479;DHT22;10398;52.490;13.434;2022-07-29T08:06:16;21.70;99.30
20479;DHT22;10398;52.490;13.434;2022-07-29T08:08:42;21.80;98.60
20479;DHT22;10398;52.490;13.434;2022-07-29T08:11:08;21.90;98.80
20479;DHT22;10398;52.490;13.434;2022-07-29T08:13:33;21.90;97.50
20479;DHT22;10398;52.490;13.434;2022-07-29T08:15:59;21.90;97.20
20479;DHT22;10398;52.490;13.434;2022-07-29T08:18:37;21.90;97.10
20479;DHT22;10398;52.490;13.434;2022-07-29T08:21:03;22.00;97.80
20479;DHT22;10398;52.490;13.434;2022-07-29T08:23:29;22.00;98.30
20479;DHT22;10398;52.490;13.434;2022-07-29T08:26:04;22.10;98.40
20479;DHT22;10398;52.490;13.434;2022-07-29T08:28:29;22.20;97.80
20479;DHT22;10398;52.490;13.434;2022-07-29T08:30:55;22.40;97.70
20479;DHT22;10398;52.490;13.434;2022-07-29T08:33:21;22.40;96.70
20479;DHT22;10398;52.490;13.434;2022-07-29T08:35:46;22.50;97.00
20479;DHT22;10398;52.490;13.434;2022-07-29T08:38:12;22.60;96.90
20479;DHT22;10398;52.490;13.434;2022-07-29T08:40:37;22.70;96.20
20479;DHT22;10398;52.490;13.434;2022-07-29T08:43:08;22.80;94.60
20479;DHT22;10398;52.490;13.434;2022-07-29T08:45:43;22.80;95.30
20479;DHT22;10398;52.490;13.434;2022-07-29T08:48:21;22.80;95.70
20479;DHT22;10398;52.490;13.434;2022-07-29T08:50:48;22.80;95.00
20479;DHT22;10398;52.490;13.434;2022-07-29T08:53:16;22.90;95.00
20479;DHT22;10398;52.490;13.434;2022-07-29T08:55:49;23.00;95.00
20479;DHT22;10398;52.490;13.434;2022-07-29T08:58:16;23.10;95.60
20479;DHT22;10398;52.490;13.434;2022-07-29T09:00:44;23.10;94.00
20479;DHT22;10398;52.490;13.434;2022-07-29T09:03:12;23.10;93.50
20479;DHT22;10398;52.490;13.434;2022-07-29T09:05:47;23.00;93.40
20479;DHT22;10398;52.490;13.434;2022-07-29T09:08:13;22.90;93.00
20479;DHT22;10398;52.490;13.434;2022-07-29T09:10:40;22.90;93.40
20479;DHT22;10398;52.490;13.434;2022-07-29T09:13:06;23.00;93.80
20479;DHT22;10398;52.490;13.434;2022-07-29T09:15:32;23.00;93.80
20479;DHT22;10398;52.490;13.434;2022-07-29T09:17:57;23.10;93.80
20479;DHT22;10398;52.490;13.434;2022-07-29T09:20:25;23.20;94.10
20479;DHT22;10398;52.490;13.434;2022-07-29T09:22:52;23.30;94.10
20479;DHT22;10398;52.490;13.434;2022-07-29T09:25:35;23.40;93.60
20479;DHT22;10398;52.490;13.434;2022-07-29T09:30:34;23.70;92.20
20479;DHT22;10398;52.490;13.434;2022-07-29T09:33:02;23.80;91.80
20479;DHT22;10398;52.490;13.434;2022-07-29T09:35:29;23.90;90.50
20479;DHT22;10398;52.490;13.434;2022-07-29T09:37:55;24.00;91.30
20479;DHT22;10398;52.490;13.434;2022-07-29T09:40:27;24.00;91.60
20479;DHT22;10398;52.490;13.434;2022-07-29T09:42:53;24.00;91.50
20479;DHT22;10398;52.490;13.434;2022-07-29T09:45:28;24.00;90.90
20479;DHT22;10398;52.490;13.434;2022-07-29T09:47:54;24.00;91.30
20479;DHT22;10398;52.490;13.434;2022-07-29T09:50:22;24.00;90.80
20479;DHT22;10398;52.490;13.434;2022-07-29T09:52:59;24.00;91.40
20479;DHT22;10398;52.490;13.434;2022-07-29T09:55:25;24.00;91.40
20479;DHT22;10398;52.490;13.434;2022-07-29T09:57:51;24.00;91.10
20479;DHT22;10398;52.490;13.434;2022-07-29T10:00:19;24.10;90.30
20479;DHT22;10398;52.490;13.434;2022-07-29T10:02:46;24.10;90.50
20479;DHT22;10398;52.490;13.434;2022-07-29T10:05:26;24.20;90.60
20479;DHT22;10398;52.490;13.434;2022-07-29T10:07:57;24.40;89.10
20479;DHT22;10398;52.490;13.434;2022-07-29T10:10:31;24.50;87.20
20479;DHT22;10398;52.490;13.434;2022-07-29T10:13:00;24.60;85.90
20479;DHT22;10398;52.490;13.434;2022-07-29T10:15:27;24.70;85.10
20479;DHT22;10398;52.490;13.434;2022-07-29T10:17:55;24.80;83.70
20479;DHT22;10398;52.490;13.434;2022-07-29T10:20:21;25.00;84.90
20479;DHT22;10398;52.490;13.434;2022-07-29T10:22:49;25.10;81.80
20479;DHT22;10398;52.490;13.434;2022-07-29T10:25:16;25.20;80.70
20479;DHT22;10398;52.490;13.434;2022-07-29T10:27:46;25.20;79.60
20479;DHT22;10398;52.490;13.434;2022-07-29T10:30:15;25.20;80.80
20479;DHT22;10398;52.490;13.434;2022-07-29T10:46:27;25.10;79.60
20479;DHT22;10398;52.490;13.434;2022-07-29T10:49:32;25.20;79.20
20479;DHT22;10398;52.490;13.434;2022-07-29T10:57:13;25.50;79.30
20479;DHT22;10398;52.490;13.434;2022-07-29T10:59:40;25.70;77.60
20479;DHT22;10398;52.490;13.434;2022-07-29T11:07:23;25.80;77.30
20479;DHT22;10398;52.490;13.434;2022-07-29T11:15:13;25.70;78.20
20479;DHT22;10398;52.490;13.434;2022-07-29T11:20:32;25.60;77.30
20479;DHT22;10398;52.490;13.434;2022-07-29T11:22:58;25.50;77.10
20479;DHT22;10398;52.490;13.434;2022-07-29T11:25:24;25.50;76.90
20479;DHT22;10398;52.490;13.434;2022-07-29T11:27:52;25.50;78.20
20479;DHT22;10398;52.490;13.434;2022-07-29T11:30:18;25.50;77.60
20479;DHT22;10398;52.490;13.434;2022-07-29T11:32:45;25.60;77.90
20479;DHT22;10398;52.490;13.434;2022-07-29T11:35:20;25.70;79.20
20479;DHT22;10398;52.490;13.434;2022-07-29T11:38:23;25.90;78.80
20479;DHT22;10398;52.490;13.434;2022-07-29T11:40:33;25.90;77.80
20479;DHT22;10398;52.490;13.434;2022-07-29T11:42:58;26.00;78.10
20479;DHT22;10398;52.490;13.434;2022-07-29T11:45:26;26.00;78.10
20479;DHT22;10398;52.490;13.434;2022-07-29T11:47:57;26.20;78.30
20479;DHT22;10398;52.490;13.434;2022-07-29T11:50:42;26.40;78.70
20479;DHT22;10398;52.490;13.434;2022-07-29T11:53:12;26.60;78.80
20479;DHT22;10398;52.490;13.434;2022-07-29T11:55:39;26.70;78.60
20479;DHT22;10398;52.490;13.434;2022-07-29T11:58:05;26.80;78.10
20479;DHT22;10398;52.490;13.434;2022-07-29T12:00:32;26.90;77.80
20479;DHT22;10398;52.490;13.434;2022-07-29T12:03:01;26.90;79.00
20479;DHT22;10398;52.490;13.434;2022-07-29T12:05:32;27.10;78.70
20479;DHT22;10398;52.490;13.434;2022-07-29T12:08:14;27.10;78.30
20479;DHT22;10398;52.490;13.434;2022-07-29T12:10:42;27.20;78.70
20479;DHT22;10398;52.490;13.434;2022-07-29T12:13:08;27.30;78.90
20479;DHT22;10398;52.490;13.434;2022-07-29T12:15:34;27.40;78.70
20479;DHT22;10398;52.490;13.434;2022-07-29T12:18:19;27.40;78.90
20479;DHT22;10398;52.490;13.434;2022-07-29T12:20:46;27.30;79.00
20479;DHT22;10398;52.490;13.434;2022-07-29T12:23:12;27.30;80.80
20479;DHT22;10398;52.490;13.434;2022-07-29T12:25:40;27.30;80.70
20479;DHT22;10398;52.490;13.434;2022-07-29T12:28:11;27.30;79.80
20479;DHT22;10398;52.490;13.434;2022-07-29T12:33:16;27.10;79.10
20479;DHT22;10398;52.490;13.434;2022-07-29T12:35:45;27.20;78.80
20479;DHT22;10398;52.490;13.434;2022-07-29T12:38:11;27.30;78.90
20479;DHT22;10398;52.490;13.434;2022-07-29T12:40:38;27.40;78.20
20479;DHT22;10398;52.490;13.434;2022-07-29T12:43:14;27.50;79.10
20479;DHT22;10398;52.490;13.434;2022-07-29T12:45:44;27.50;78.30
20479;DHT22;10398;52.490;13.434;2022-07-29T12:48:11;27.50;77.70
20479;DHT22;10398;52.490;13.434;2022-07-29T12:50:52;27.40;78.10
20479;DHT22;10398;52.490;13.434;2022-07-29T12:53:18;27.40;77.00
20479;DHT22;10398;52.490;13.434;2022-07-29T12:55:46;27.30;76.60
20479;DHT22;10398;52.490;13.434;2022-07-29T12:58:33;27.30;77.40
20479;DHT22;10398;52.490;13.434;2022-07-29T13:01:08;27.30;77.90
20479;DHT22;10398;52.490;13.434;2022-07-29T13:06:44;27.50;78.80
20479;DHT22;10398;52.490;13.434;2022-07-29T13:09:17;27.50;77.30
20479;DHT22;10398;52.490;13.434;2022-07-29T13:11:48;27.40;77.90
20479;DHT22;10398;52.490;13.434;2022-07-29T13:14:30;27.30;77.80
20479;DHT22;10398;52.490;13.434;2022-07-29T13:17:14;27.20;76.40
20479;DHT22;10398;52.490;13.434;2022-07-29T13:20:04;27.10;76.60
20479;DHT22;10398;52.490;13.434;2022-07-29T13:22:30;27.10;76.90
20479;DHT22;10398;52.490;13.434;2022-07-29T13:24:58;27.00;77.50
20479;DHT22;10398;52.490;13.434;2022-07-29T13:27:26;27.00;77.90
20479;DHT22;10398;52.490;13.434;2022-07-29T13:29:53;27.00;77.60
20479;DHT22;10398;52.490;13.434;2022-07-29T13:32:22;27.10;77.70
20479;DHT22;10398;52.490;13.434;2022-07-29T13:34:48;27.10;78.40
20479;DHT22;10398;52.490;13.434;2022-07-29T13:37:14;27.10;79.00
20479;DHT22;10398;52.490;13.434;2022-07-29T13:39:40;27.20;79.60
20479;DHT22;10398;52.490;13.434;2022-07-29T13:42:06;27.40;80.00
20479;DHT22;10398;52.490;13.434;2022-07-29T13:44:33;27.50;78.90
20479;DHT22;10398;52.490;13.434;2022-07-29T13:46:58;27.60;78.70
20479;DHT22;10398;52.490;13.434;2022-07-29T13:49:25;27.70;77.80
20479;DHT22;10398;52.490;13.434;2022-07-29T13:51:50;27.80;77.50
20479;DHT22;10398;52.490;13.434;2022-07-29T13:54:16;27.90;77.30
20479;DHT22;10398;52.490;13.434;2022-07-29T13:56:41;28.00;76.60
20479;DHT22;10398;52.490;13.434;2022-07-29T13:59:07;28.10;75.60
20479;DHT22;10398;52.490;13.434;2022-07-29T14:01:34;28.20;75.70
20479;DHT22;10398;52.490;13.434;2022-07-29T14:04:00;28.30;76.30
20479;DHT22;10398;52.490;13.434;2022-07-29T14:06:25;28.30;76.20
20479;DHT22;10398;52.490;13.434;2022-07-29T14:08:51;28.40;75.90
20479;DHT22;10398;52.490;13.434;2022-07-29T14:11:17;28.40;76.70
20479;DHT22;10398;52.490;13.434;2022-07-29T14:13:42;28.40;76.00
20479;DHT22;10398;52.490;13.434;2022-07-29T14:16:08;28.50;76.10
20479;DHT22;10398;52.490;13.434;2022-07-29T14:18:33;28.50;74.40
20479;DHT22;10398;52.490;13.434;2022-07-29T14:20:59;28.40;74.40
20479;DHT22;10398;52.490;13.434;2022-07-29T14:23:25;28.40;75.30
20479;DHT22;10398;52.490;13.434;2022-07-29T14:25:51;28.50;73.00
20479;DHT22;10398;52.490;13.434;2022-07-29T14:28:17;28.50;71.60
20479;DHT22;10398;52.490;13.434;2022-07-29T14:30:42;28.50;72.10
20479;DHT22;10398;52.490;13.434;2022-07-29T14:33:08;28.60;73.60
20479;DHT22;10398;52.490;13.434;2022-07-29T14:35:34;28.60;74.40
20479;DHT22;10398;52.490;13.434;2022-07-29T14:38:00;28.70;74.20
20479;DHT22;10398;52.490;13.434;2022-07-29T14:40:25;28.80;74.00
20479;DHT22;10398;52.490;13.434;2022-07-29T14:42:51;28.80;73.70
20479;DHT22;10398;52.490;13.434;2022-07-29T14:45:17;28.80;74.50
20479;DHT22;10398;52.490;13.434;2022-07-29T14:47:42;28.80;75.10
20479;DHT22;10398;52.490;13.434;2022-07-29T14:50:09;28.90;74.40
20479;DHT22;10398;52.490;13.434;2022-07-29T14:52:34;28.90;73.20
20479;DHT22;10398;52.490;13.434;2022-07-29T14:55:00;28.70;72.90
20479;DHT22;10398;52.490;13.434;2022-07-29T14:57:26;28.50;73.20
20479;DHT22;10398;52.490;13.434;2022-07-29T14:59:51;28.40;73.30
20479;DHT22;10398;52.490;13.434;2022-07-29T15:02:17;28.30;73.80
20479;DHT22;10398;52.490;13.434;2022-07-29T15:04:43;28.30;73.80
20479;DHT22;10398;52.490;13.434;2022-07-29T15:07:11;28.20;73.90
20479;DHT22;10398;52.490;13.434;2022-07-29T15:09:36;28.20;73.70
20479;DHT22;10398;52.490;13.434;2022-07-29T15:12:03;28.30;73.20
20479;DHT22;10398;52.490;13.434;2022-07-29T15:14:29;28.40;73.10
20479;DHT22;10398;52.490;13.434;2022-07-29T15:16:55;28.50;72.50
20479;DHT22;10398;52.490;13.434;2022-07-29T15:19:21;28.50;72.20
20479;DHT22;10398;52.490;13.434;2022-07-29T15:21:46;28.60;71.80
20479;DHT22;10398;52.490;13.434;2022-07-29T15:24:12;28.60;71.30
20479;DHT22;10398;52.490;13.434;2022-07-29T15:26:37;28.70;71.40
20479;DHT22;10398;52.490;13.434;2022-07-29T15:29:03;28.70;71.00
20479;DHT22;10398;52.490;13.434;2022-07-29T15:31:29;28.70;71.20
20479;DHT22;10398;52.490;13.434;2022-07-29T15:33:54;28.70;70.80
20479;DHT22;10398;52.490;13.434;2022-07-29T15:36:20;28.70;70.70
20479;DHT22;10398;52.490;13.434;2022-07-29T15:38:46;28.70;70.50
20479;DHT22;10398;52.490;13.434;2022-07-29T15:41:14;28.70;70.10
20479;DHT22;10398;52.490;13.434;2022-07-29T15:43:44;28.70;70.40
20479;DHT22;10398;52.490;13.434;2022-07-29T15:46:14;28.70;70.10
20479;DHT22;10398;52.490;13.434;2022-07-29T15:48:59;28.70;69.80
20479;DHT22;10398;52.490;13.434;2022-07-29T15:51:25;28.70;69.70
20479;DHT22;10398;52.490;13.434;2022-07-29T15:53:50;28.70;70.00
20479;DHT22;10398;52.490;13.434;2022-07-29T15:56:16;28.70;69.50
20479;DHT22;10398;52.490;13.434;2022-07-29T15:58:42;28.60;69.20
20479;DHT22;10398;52.490;13.434;2022-07-29T16:01:08;28.60;69.80
20479;DHT22;10398;52.490;13.434;2022-07-29T16:03:33;28.60;70.40
20479;DHT22;10398;52.490;13.434;2022-07-29T16:05:59;28.50;72.30
20479;DHT22;10398;52.490;13.434;2022-07-29T16:08:25;28.30;72.30